sensor_id;sensor_type;location;lat;lon;timestamp;P1;durP1;ratioP1;P2;durP2;ratioP2
8913;SDS011;4492;48.736;9.092;2023-02-15T00:01:15;47.80;;;20.87;;
8913;SDS011;4492;48.736;9.092;2023-02-15T00:03:40;53.90;;;20.80;;
8913;SDS011;4492;48.736;9.092;2023-02-15T00:06:06;51.93;;;20.83;;
8913;SDS011;4492;48.736;9.092;2023-02-15T00:08:31;46.77;;;20.37;;
8913;SDS011;4492;48.736;9.092;2023-02-15T00:11:07;55.37;;;21.00;;
8913;SDS011;4492;48.736;9.092;2023-02-15T00:13:34;46.60;;;20.40;;
8913;SDS011;4492;48.736;9.092;2023-02-15T00:16:05;50.97;;;20.53;;
8913;SDS011;4492;48.736;9.092;2023-02-15T00:18:32;51.97;;;21.03;;
8913;SDS011;4492;48.736;9.092;2023-02-15T00:20:58;51.23;;;19.97;;
8913;SDS011;4492;48.736;9.092;2023-02-15T00:23:28;47.40;;;18.70;;
8913;SDS011;4492;48.736;9.092;2023-02-15T00:26:02;43.37;;;18.47;;
8913;SDS011;4492;48.736;9.092;2023-02-15T00:28:35;46.17;;;19.27;;
8913;SDS011;4492;48.736;9.092;2023-02-15T00:31:04;45.33;;;18.37;;
8913;SDS011;4492;48.736;9.092;2023-02-15T00:33:35;48.40;;;19.90;;
8913;SDS011;4492;48.736;9.092;2023-02-15T00:36:01;42.67;;;19.13;;
8913;SDS011;4492;48.736;9.092;2023-02-15T00:38:29;46.90;;;19.37;;
8913;SDS011;4492;48.736;9.092;2023-02-15T00:40:56;50.90;;;20.20;;
8913;SDS011;4492;48.736;9.092;2023-02-15T00:43:23;48.03;;;19.70;;
8913;SDS011;4492;48.736;9.092;2023-02-15T00:45:49;50.53;;;18.87;;
8913;SDS011;4492;48.736;9.092;2023-02-15T00:48:15;46.13;;;20.10;;
8913;SDS011;4492;48.736;9.092;2023-02-15T00:50:40;50.43;;;19.80;;
8913;SDS011;4492;48.736;9.092;2023-02-15T00:53:06;49.47;;;19.83;;
8913;SDS011;4492;48.736;9.092;2023-02-15T00:55:32;49.47;;;19.37;;
8913;SDS011;4492;48.736;9.092;2023-02-15T00:57:58;51.17;;;19.93;;
8913;SDS011;4492;48.736;9.092;2023-02-15T01:00:23;44.00;;;18.63;;
8913;SDS011;4492;48.736;9.092;2023-02-15T01:02:49;50.13;;;19.67;;
8913;SDS011;4492;48.736;9.092;2023-02-15T01:05:14;52.43;;;19.63;;
8913;SDS011;4492;48.736;9.092;2023-02-15T01:07:40;45.60;;;18.37;;
8913;SDS011;4492;48.736;9.092;2023-02-15T01:10:06;48.87;;;19.17;;
8913;SDS011;4492;48.736;9.092;2023-02-15T01:12:32;48.40;;;18.93;;
8913;SDS011;4492;48.736;9.092;2023-02-15T01:14:58;40.97;;;19.23;;
8913;SDS011;4492;48.736;9.092;2023-02-15T01:17:23;49.20;;;19.00;;
8913;SDS011;4492;48.736;9.092;2023-02-15T01:19:49;43.87;;;18.80;;
8913;SDS011;4492;48.736;9.092;2023-02-15T01:22:16;44.87;;;18.63;;
8913;SDS011;4492;48.736;9.092;2023-02-15T01:24:42;48.50;;;19.27;;
8913;SDS011;4492;48.736;9.092;2023-02-15T01:27:07;44.33;;;19.10;;
8913;SDS011;4492;48.736;9.092;2023-02-15T01:29:33;53.17;;;19.27;;
8913;SDS011;4492;48.736;9.092;2023-02-15T01:31:58;50.90;;;19.93;;
8913;SDS011;4492;48.736;9.092;2023-02-15T01:34:24;47.57;;;18.87;;
8913;SDS011;4492;48.736;9.092;2023-02-15T01:36:49;54.07;;;19.27;;
8913;SDS011;4492;48.736;9.092;2023-02-15T01:39:15;47.80;;;19.23;;
8913;SDS011;4492;48.736;9.092;2023-02-15T01:41:40;44.00;;;17.57;;
8913;SDS011;4492;48.736;9.092;2023-02-15T01:47:10;47.13;;;18.73;;
8913;SDS011;4492;48.736;9.092;2023-02-15T01:49:40;45.90;;;17.67;;
8913;SDS011;4492;48.736;9.092;2023-02-15T01:52:10;48.17;;;19.27;;
8913;SDS011;4492;48.736;9.092;2023-02-15T01:54:39;47.67;;;18.70;;
8913;SDS011;4492;48.736;9.092;2023-02-15T01:57:09;49.80;;;18.33;;
8913;SDS011;4492;48.736;9.092;2023-02-15T01:59:39;41.03;;;17.83;;
8913;SDS011;4492;48.736;9.092;2023-02-15T02:02:07;48.70;;;18.07;;
8913;SDS011;4492;48.736;9.092;2023-02-15T02:04:39;44.70;;;18.13;;
8913;SDS011;4492;48.736;9.092;2023-02-15T02:07:15;44.13;;;17.73;;
8913;SDS011;4492;48.736;9.092;2023-02-15T02:09:44;41.20;;;17.37;;
8913;SDS011;4492;48.736;9.092;2023-02-15T02:12:10;49.13;;;18.13;;
8913;SDS011;4492;48.736;9.092;2023-02-15T02:14:36;45.50;;;18.23;;
8913;SDS011;4492;48.736;9.092;2023-02-15T02:19:51;46.27;;;17.93;;
8913;SDS011;4492;48.736;9.092;2023-02-15T02:25:52;44.77;;;17.63;;
8913;SDS011;4492;48.736;9.092;2023-02-15T02:34:04;39.73;;;16.53;;
8913;SDS011;4492;48.736;9.092;2023-02-15T02:36:49;49.93;;;18.13;;
8913;SDS011;4492;48.736;9.092;2023-02-15T02:39:37;42.37;;;17.77;;
8913;SDS011;4492;48.736;9.092;2023-02-15T02:44:53;44.20;;;17.00;;
8913;SDS011;4492;48.736;9.092;2023-02-15T02:47:36;44.13;;;17.10;;
8913;SDS011;4492;48.736;9.092;2023-02-15T02:50:12;39.93;;;16.97;;
8913;SDS011;4492;48.736;9.092;2023-02-15T02:52:41;40.13;;;17.47;;
8913;SDS011;4492;48.736;9.092;2023-02-15T02:55:13;40.67;;;16.03;;
8913;SDS011;4492;48.736;9.092;2023-02-15T02:58:26;46.43;;;17.50;;
8913;SDS011;4492;48.736;9.092;2023-02-15T03:00:36;40.17;;;16.53;;
8913;SDS011;4492;48.736;9.092;2023-02-15T03:03:48;43.07;;;16.87;;
8913;SDS011;4492;48.736;9.092;2023-02-15T03:05:58;39.77;;;15.80;;
8913;SDS011;4492;48.736;9.092;2023-02-15T03:08:30;38.07;;;16.47;;
8913;SDS011;4492;48.736;9.092;2023-02-15T03:11:01;38.23;;;16.27;;
8913;SDS011;4492;48.736;9.092;2023-02-15T03:13:30;42.60;;;17.23;;
8913;SDS011;4492;48.736;9.092;2023-02-15T03:15:56;42.70;;;17.57;;
8913;SDS011;4492;48.736;9.092;2023-02-15T03:18:47;39.73;;;16.67;;
8913;SDS011;4492;48.736;9.092;2023-02-15T03:21:24;41.60;;;16.83;;
8913;SDS011;4492;48.736;9.092;2023-02-15T03:24:24;42.93;;;16.53;;
8913;SDS011;4492;48.736;9.092;2023-02-15T03:27:00;42.03;;;16.40;;
8913;SDS011;4492;48.736;9.092;2023-02-15T03:29:29;43.97;;;17.17;;
8913;SDS011;4492;48.736;9.092;2023-02-15T03:31:59;44.10;;;17.23;;
8913;SDS011;4492;48.736;9.092;2023-02-15T03:34:29;44.17;;;17.47;;
8913;SDS011;4492;48.736;9.092;2023-02-15T03:36:57;44.93;;;17.13;;
8913;SDS011;4492;48.736;9.092;2023-02-15T03:45:04;42.97;;;16.27;;
8913;SDS011;4492;48.736;9.092;2023-02-15T03:47:35;43.53;;;17.00;;
8913;SDS011;4492;48.736;9.092;2023-02-15T03:50:04;35.83;;;15.83;;
8913;SDS011;4492;48.736;9.092;2023-02-15T03:53:03;40.57;;;16.37;;
8913;SDS011;4492;48.736;9.092;2023-02-15T03:55:31;37.57;;;16.20;;
8913;SDS011;4492;48.736;9.092;2023-02-15T03:57:58;40.77;;;16.33;;
8913;SDS011;4492;48.736;9.092;2023-02-15T04:00:44;44.17;;;17.03;;
8913;SDS011;4492;48.736;9.092;2023-02-15T04:03:39;39.17;;;16.87;;
8913;SDS011;4492;48.736;9.092;2023-02-15T04:06:07;40.43;;;17.00;;
8913;SDS011;4492;48.736;9.092;2023-02-15T04:08:32;42.80;;;16.97;;
8913;SDS011;4492;48.736;9.092;2023-02-15T04:11:16;41.77;;;16.03;;
8913;SDS011;4492;48.736;9.092;2023-02-15T04:13:42;40.70;;;16.33;;
8913;SDS011;4492;48.736;9.092;2023-02-15T04:16:08;41.07;;;16.43;;
8913;SDS011;4492;48.736;9.092;2023-02-15T04:18:34;45.03;;;16.83;;
8913;SDS011;4492;48.736;9.092;2023-02-15T04:21:21;39.47;;;15.87;;
8913;SDS011;4492;48.736;9.092;2023-02-15T04:24:06;40.63;;;16.87;;
8913;SDS011;4492;48.736;9.092;2023-02-15T04:26:51;34.57;;;15.73;;
8913;SDS011;4492;48.736;9.092;2023-02-15T04:29:21;34.93;;;15.67;;
8913;SDS011;4492;48.736;9.092;2023-02-15T04:31:47;40.50;;;16.50;;
8913;SDS011;4492;48.736;9.092;2023-02-15T04:34:13;40.83;;;16.53;;
8913;SDS011;4492;48.736;9.092;2023-02-15T04:36:39;38.10;;;16.30;;
8913;SDS011;4492;48.736;9.092;2023-02-15T04:39:05;42.77;;;15.37;;
8913;SDS011;4492;48.736;9.092;2023-02-15T04:41:32;43.07;;;16.00;;
8913;SDS011;4492;48.736;9.092;2023-02-15T04:43:58;37.27;;;16.10;;
8913;SDS011;4492;48.736;9.092;2023-02-15T04:46:25;37.03;;;15.37;;
8913;SDS011;4492;48.736;9.092;2023-02-15T04:48:51;37.20;;;15.40;;
8913;SDS011;4492;48.736;9.092;2023-02-15T04:51:17;37.33;;;15.77;;
8913;SDS011;4492;48.736;9.092;2023-02-15T04:53:42;38.80;;;15.87;;
8913;SDS011;4492;48.736;9.092;2023-02-15T04:56:08;36.20;;;15.77;;
8913;SDS011;4492;48.736;9.092;2023-02-15T04:58:34;36.73;;;15.33;;
8913;SDS011;4492;48.736;9.092;2023-02-15T05:01:00;35.13;;;16.07;;
8913;SDS011;4492;48.736;9.092;2023-02-15T05:03:26;37.73;;;15.20;;
8913;SDS011;4492;48.736;9.092;2023-02-15T05:05:51;45.27;;;17.33;;
8913;SDS011;4492;48.736;9.092;2023-02-15T05:08:17;42.07;;;16.63;;
8913;SDS011;4492;48.736;9.092;2023-02-15T05:10:42;38.80;;;16.87;;
8913;SDS011;4492;48.736;9.092;2023-02-15T05:13:08;42.60;;;17.23;;
8913;SDS011;4492;48.736;9.092;2023-02-15T05:15:33;43.80;;;17.30;;
8913;SDS011;4492;48.736;9.092;2023-02-15T05:17:59;45.37;;;18.37;;
8913;SDS011;4492;48.736;9.092;2023-02-15T05:20:26;40.97;;;16.53;;
8913;SDS011;4492;48.736;9.092;2023-02-15T05:22:54;43.93;;;16.70;;
8913;SDS011;4492;48.736;9.092;2023-02-15T05:25:20;47.03;;;18.33;;
8913;SDS011;4492;48.736;9.092;2023-02-15T05:28:04;48.63;;;17.23;;
8913;SDS011;4492;48.736;9.092;2023-02-15T05:30:45;39.20;;;16.60;;
8913;SDS011;4492;48.736;9.092;2023-02-15T05:33:12;41.77;;;17.53;;
8913;SDS011;4492;48.736;9.092;2023-02-15T05:35:38;38.87;;;16.33;;
8913;SDS011;4492;48.736;9.092;2023-02-15T05:38:03;44.60;;;16.90;;
8913;SDS011;4492;48.736;9.092;2023-02-15T05:40:29;40.67;;;16.87;;
8913;SDS011;4492;48.736;9.092;2023-02-15T05:42:55;41.57;;;16.97;;
8913;SDS011;4492;48.736;9.092;2023-02-15T05:45:21;45.43;;;18.73;;
8913;SDS011;4492;48.736;9.092;2023-02-15T05:47:47;49.73;;;17.33;;
8913;SDS011;4492;48.736;9.092;2023-02-15T05:50:13;47.57;;;17.67;;
8913;SDS011;4492;48.736;9.092;2023-02-15T05:52:38;45.67;;;17.83;;
8913;SDS011;4492;48.736;9.092;2023-02-15T05:55:04;41.30;;;16.50;;
8913;SDS011;4492;48.736;9.092;2023-02-15T05:57:30;38.57;;;16.87;;
8913;SDS011;4492;48.736;9.092;2023-02-15T05:59:56;41.37;;;16.70;;
8913;SDS011;4492;48.736;9.092;2023-02-15T06:02:21;47.37;;;16.80;;
8913;SDS011;4492;48.736;9.092;2023-02-15T06:04:47;45.50;;;17.50;;
8913;SDS011;4492;48.736;9.092;2023-02-15T06:07:13;41.50;;;16.17;;
8913;SDS011;4492;48.736;9.092;2023-02-15T06:09:38;44.33;;;16.67;;
8913;SDS011;4492;48.736;9.092;2023-02-15T06:12:04;38.97;;;17.90;;
8913;SDS011;4492;48.736;9.092;2023-02-15T06:14:30;46.80;;;17.57;;
8913;SDS011;4492;48.736;9.092;2023-02-15T06:16:56;47.90;;;18.57;;
8913;SDS011;4492;48.736;9.092;2023-02-15T06:19:21;44.90;;;18.23;;
8913;SDS011;4492;48.736;9.092;2023-02-15T06:21:47;47.87;;;17.63;;
8913;SDS011;4492;48.736;9.092;2023-02-15T06:24:13;48.03;;;18.20;;
8913;SDS011;4492;48.736;9.092;2023-02-15T06:26:39;42.30;;;17.10;;
8913;SDS011;4492;48.736;9.092;2023-02-15T06:29:04;41.77;;;17.53;;
8913;SDS011;4492;48.736;9.092;2023-02-15T06:31:30;43.23;;;18.00;;
8913;SDS011;4492;48.736;9.092;2023-02-15T06:33:55;45.67;;;17.10;;
8913;SDS011;4492;48.736;9.092;2023-02-15T06:36:29;41.73;;;16.93;;
8913;SDS011;4492;48.736;9.092;2023-02-15T06:38:56;46.13;;;18.30;;
8913;SDS011;4492;48.736;9.092;2023-02-15T06:41:22;42.93;;;15.57;;
8913;SDS011;4492;48.736;9.092;2023-02-15T06:43:48;47.57;;;17.50;;
8913;SDS011;4492;48.736;9.092;2023-02-15T06:46:13;41.03;;;16.60;;
8913;SDS011;4492;48.736;9.092;2023-02-15T06:48:39;43.23;;;17.23;;
8913;SDS011;4492;48.736;9.092;2023-02-15T06:51:04;37.70;;;15.57;;
8913;SDS011;4492;48.736;9.092;2023-02-15T06:53:30;37.90;;;16.10;;
8913;SDS011;4492;48.736;9.092;2023-02-15T06:56:05;42.07;;;15.77;;
8913;SDS011;4492;48.736;9.092;2023-02-15T06:58:34;42.87;;;16.63;;
8913;SDS011;4492;48.736;9.092;2023-02-15T07:01:08;48.17;;;16.53;;
8913;SDS011;4492;48.736;9.092;2023-02-15T07:03:34;44.80;;;16.30;;
8913;SDS011;4492;48.736;9.092;2023-02-15T07:06:01;43.40;;;17.17;;
8913;SDS011;4492;48.736;9.092;2023-02-15T07:08:30;43.53;;;16.60;;
8913;SDS011;4492;48.736;9.092;2023-02-15T07:10:56;44.93;;;16.70;;
8913;SDS011;4492;48.736;9.092;2023-02-15T07:13:45;45.50;;;17.27;;
8913;SDS011;4492;48.736;9.092;2023-02-15T07:16:11;41.87;;;17.37;;
8913;SDS011;4492;48.736;9.092;2023-02-15T07:18:37;47.37;;;16.53;;
8913;SDS011;4492;48.736;9.092;2023-02-15T07:21:03;41.80;;;17.70;;
8913;SDS011;4492;48.736;9.092;2023-02-15T07:23:29;41.20;;;17.77;;
8913;SDS011;4492;48.736;9.092;2023-02-15T07:25:58;44.83;;;18.37;;
8913;SDS011;4492;48.736;9.092;2023-02-15T07:28:24;45.77;;;17.50;;
8913;SDS011;4492;48.736;9.092;2023-02-15T07:30:50;47.97;;;18.83;;
8913;SDS011;4492;48.736;9.092;2023-02-15T07:33:15;44.17;;;18.77;;
8913;SDS011;4492;48.736;9.092;2023-02-15T07:36:02;49.43;;;17.53;;
8913;SDS011;4492;48.736;9.092;2023-02-15T07:38:32;51.70;;;19.53;;
8913;SDS011;4492;48.736;9.092;2023-02-15T07:41:06;52.60;;;20.20;;
8913;SDS011;4492;48.736;9.092;2023-02-15T07:43:37;49.53;;;18.93;;
8913;SDS011;4492;48.736;9.092;2023-02-15T07:46:14;49.37;;;19.83;;
8913;SDS011;4492;48.736;9.092;2023-02-15T07:48:41;49.53;;;19.40;;
8913;SDS011;4492;48.736;9.092;2023-02-15T07:51:08;51.33;;;19.47;;
8913;SDS011;4492;48.736;9.092;2023-02-15T07:53:35;51.43;;;21.17;;
8913;SDS011;4492;48.736;9.092;2023-02-15T07:56:02;57.17;;;20.67;;
8913;SDS011;4492;48.736;9.092;2023-02-15T07:58:29;55.20;;;22.27;;
8913;SDS011;4492;48.736;9.092;2023-02-15T08:01:14;47.80;;;19.60;;
8913;SDS011;4492;48.736;9.092;2023-02-15T08:03:39;44.67;;;21.40;;
8913;SDS011;4492;48.736;9.092;2023-02-15T08:06:05;45.27;;;19.67;;
8913;SDS011;4492;48.736;9.092;2023-02-15T08:08:33;51.70;;;21.23;;
8913;SDS011;4492;48.736;9.092;2023-02-15T08:11:04;48.23;;;21.13;;
8913;SDS011;4492;48.736;9.092;2023-02-15T08:13:58;45.87;;;18.83;;
8913;SDS011;4492;48.736;9.092;2023-02-15T08:16:37;44.50;;;19.17;;
8913;SDS011;4492;48.736;9.092;2023-02-15T08:19:05;49.20;;;20.87;;
8913;SDS011;4492;48.736;9.092;2023-02-15T08:21:53;44.10;;;19.80;;
8913;SDS011;4492;48.736;9.092;2023-02-15T08:24:22;47.40;;;19.77;;
8913;SDS011;4492;48.736;9.092;2023-02-15T08:26:50;44.43;;;19.97;;
8913;SDS011;4492;48.736;9.092;2023-02-15T08:29:17;45.83;;;20.60;;
8913;SDS011;4492;48.736;9.092;2023-02-15T08:31:48;43.03;;;20.70;;
8913;SDS011;4492;48.736;9.092;2023-02-15T08:34:16;46.00;;;20.37;;
8913;SDS011;4492;48.736;9.092;2023-02-15T08:36:43;44.13;;;20.10;;
8913;SDS011;4492;48.736;9.092;2023-02-15T08:39:10;46.00;;;20.73;;
8913;SDS011;4492;48.736;9.092;2023-02-15T08:41:36;46.73;;;21.70;;
8913;SDS011;4492;48.736;9.092;2023-02-15T08:44:04;50.77;;;22.13;;
8913;SDS011;4492;48.736;9.092;2023-02-15T08:46:32;50.83;;;22.40;;
8913;SDS011;4492;48.736;9.092;2023-02-15T08:48:59;51.63;;;22.97;;
8913;SDS011;4492;48.736;9.092;2023-02-15T08:51:26;44.37;;;22.57;;
8913;SDS011;4492;48.736;9.092;2023-02-15T08:53:57;39.97;;;21.37;;
8913;SDS011;4492;48.736;9.092;2023-02-15T08:56:26;44.77;;;22.77;;
8913;SDS011;4492;48.736;9.092;2023-02-15T08:58:53;52.10;;;22.50;;
8913;SDS011;4492;48.736;9.092;2023-02-15T09:01:21;42.33;;;21.77;;
8913;SDS011;4492;48.736;9.092;2023-02-15T09:03:49;46.03;;;22.07;;
8913;SDS011;4492;48.736;9.092;2023-02-15T09:06:19;42.23;;;21.13;;
8913;SDS011;4492;48.736;9.092;2023-02-15T09:08:45;42.37;;;21.13;;
8913;SDS011;4492;48.736;9.092;2023-02-15T09:11:12;38.90;;;19.93;;
8913;SDS011;4492;48.736;9.092;2023-02-15T09:13:47;41.33;;;20.53;;
8913;SDS011;4492;48.736;9.092;2023-02-15T09:16:14;40.80;;;19.90;;
8913;SDS011;4492;48.736;9.092;2023-02-15T09:18:41;42.73;;;21.23;;
8913;SDS011;4492;48.736;9.092;2023-02-15T09:21:09;33.60;;;18.57;;
8913;SDS011;4492;48.736;9.092;2023-02-15T09:23:38;34.47;;;18.10;;
8913;SDS011;4492;48.736;9.092;2023-02-15T09:26:08;37.70;;;19.13;;
8913;SDS011;4492;48.736;9.092;2023-02-15T09:28:35;33.97;;;18.00;;
8913;SDS011;4492;48.736;9.092;2023-02-15T09:31:08;35.03;;;18.27;;
8913;SDS011;4492;48.736;9.092;2023-02-15T09:33:42;38.30;;;19.37;;
8913;SDS011;4492;48.736;9.092;2023-02-15T09:36:19;39.30;;;19.63;;
8913;SDS011;4492;48.736;9.092;2023-02-15T09:38:46;37.07;;;18.00;;
8913;SDS011;4492;48.736;9.092;2023-02-15T09:55:18;29.33;;;17.67;;
8913;SDS011;4492;48.736;9.092;2023-02-15T09:58:00;28.27;;;15.90;;
8913;SDS011;4492;48.736;9.092;2023-02-15T10:00:42;30.93;;;16.37;;
8913;SDS011;4492;48.736;9.092;2023-02-15T10:03:33;29.90;;;16.77;;
8913;SDS011;4492;48.736;9.092;2023-02-15T10:06:28;28.50;;;15.23;;
8913;SDS011;4492;48.736;9.092;2023-02-15T10:09:25;24.73;;;16.00;;
8913;SDS011;4492;48.736;9.092;2023-02-15T10:12:22;31.77;;;15.73;;
8913;SDS011;4492;48.736;9.092;2023-02-15T10:20:54;26.33;;;14.07;;
8913;SDS011;4492;48.736;9.092;2023-02-15T10:29:53;20.73;;;12.70;;
8913;SDS011;4492;48.736;9.092;2023-02-15T10:34:34;23.43;;;12.63;;
8913;SDS011;4492;48.736;9.092;2023-02-15T10:40:00;22.10;;;12.33;;
8913;SDS011;4492;48.736;9.092;2023-02-15T10:50:50;21.83;;;11.53;;
8913;SDS011;4492;48.736;9.092;2023-02-15T10:56:21;22.60;;;13.27;;
8913;SDS011;4492;48.736;9.092;2023-02-15T11:01:30;20.77;;;12.27;;
8913;SDS011;4492;48.736;9.092;2023-02-15T11:04:08;24.97;;;11.73;;
8913;SDS011;4492;48.736;9.092;2023-02-15T11:06:39;21.43;;;11.63;;
8913;SDS011;4492;48.736;9.092;2023-02-15T11:09:13;24.73;;;13.00;;
8913;SDS011;4492;48.736;9.092;2023-02-15T11:11:43;34.70;;;13.33;;
8913;SDS011;4492;48.736;9.092;2023-02-15T11:14:24;24.33;;;13.13;;
8913;SDS011;4492;48.736;9.092;2023-02-15T11:17:14;30.63;;;14.20;;
8913;SDS011;4492;48.736;9.092;2023-02-15T11:22:30;26.93;;;12.87;;
8913;SDS011;4492;48.736;9.092;2023-02-15T11:24:58;27.37;;;13.13;;
8913;SDS011;4492;48.736;9.092;2023-02-15T11:27:27;22.10;;;12.90;;
8913;SDS011;4492;48.736;9.092;2023-02-15T11:30:11;25.47;;;13.10;;
8913;SDS011;4492;48.736;9.092;2023-02-15T11:32:45;19.93;;;12.37;;
8913;SDS011;4492;48.736;9.092;2023-02-15T11:35:20;21.03;;;12.43;;
8913;SDS011;4492;48.736;9.092;2023-02-15T11:38:01;21.40;;;11.50;;
8913;SDS011;4492;48.736;9.092;2023-02-15T11:40:45;25.53;;;11.60;;
8913;SDS011;4492;48.736;9.092;2023-02-15T11:45:46;21.40;;;12.50;;
8913;SDS011;4492;48.736;9.092;2023-02-15T11:48:13;25.17;;;13.83;;
8913;SDS011;4492;48.736;9.092;2023-02-15T11:50:40;20.60;;;12.20;;
8913;SDS011;4492;48.736;9.092;2023-02-15T11:53:09;22.80;;;12.20;;
8913;SDS011;4492;48.736;9.092;2023-02-15T11:55:41;23.67;;;12.70;;
8913;SDS011;4492;48.736;9.092;2023-02-15T11:58:11;19.57;;;11.67;;
8913;SDS011;4492;48.736;9.092;2023-02-15T12:00:49;25.53;;;12.47;;
8913;SDS011;4492;48.736;9.092;2023-02-15T12:03:24;18.97;;;12.47;;
8913;SDS011;4492;48.736;9.092;2023-02-15T12:06:16;23.00;;;13.07;;
8913;SDS011;4492;48.736;9.092;2023-02-15T12:09:00;25.30;;;13.60;;
8913;SDS011;4492;48.736;9.092;2023-02-15T12:11:49;28.27;;;14.23;;
8913;SDS011;4492;48.736;9.092;2023-02-15T12:14:14;23.33;;;14.00;;
8913;SDS011;4492;48.736;9.092;2023-02-15T12:16:47;31.03;;;14.30;;
8913;SDS011;4492;48.736;9.092;2023-02-15T12:21:51;21.43;;;14.63;;
8913;SDS011;4492;48.736;9.092;2023-02-15T12:24:21;24.00;;;15.93;;
8913;SDS011;4492;48.736;9.092;2023-02-15T12:29:56;32.73;;;16.03;;
8913;SDS011;4492;48.736;9.092;2023-02-15T12:32:27;26.67;;;15.53;;
8913;SDS011;4492;48.736;9.092;2023-02-15T12:35:10;24.83;;;15.57;;
8913;SDS011;4492;48.736;9.092;2023-02-15T12:37:40;27.73;;;16.77;;
8913;SDS011;4492;48.736;9.092;2023-02-15T12:40:22;31.33;;;15.73;;
8913;SDS011;4492;48.736;9.092;2023-02-15T12:42:52;26.43;;;16.13;;
8913;SDS011;4492;48.736;9.092;2023-02-15T12:48:13;34.53;;;17.57;;
8913;SDS011;4492;48.736;9.092;2023-02-15T12:50:41;28.77;;;15.60;;
8913;SDS011;4492;48.736;9.092;2023-02-15T12:53:19;28.83;;;15.77;;
8913;SDS011;4492;48.736;9.092;2023-02-15T12:55:59;26.67;;;15.27;;
8913;SDS011;4492;48.736;9.092;2023-02-15T12:58:27;26.73;;;15.63;;
8913;SDS011;4492;48.736;9.092;2023-02-15T13:01:02;25.90;;;15.67;;
8913;SDS011;4492;48.736;9.092;2023-02-15T13:03:34;23.87;;;15.07;;
8913;SDS011;4492;48.736;9.092;2023-02-15T13:06:02;28.30;;;15.87;;
8913;SDS011;4492;48.736;9.092;2023-02-15T13:08:34;29.17;;;17.30;;
8913;SDS011;4492;48.736;9.092;2023-02-15T13:19:01;28.77;;;16.17;;
8913;SDS011;4492;48.736;9.092;2023-02-15T13:21:39;30.93;;;16.83;;
8913;SDS011;4492;48.736;9.092;2023-02-15T13:24:17;26.60;;;15.73;;
8913;SDS011;4492;48.736;9.092;2023-02-15T13:26:52;28.33;;;17.03;;
8913;SDS011;4492;48.736;9.092;2023-02-15T13:29:24;24.87;;;16.07;;
8913;SDS011;4492;48.736;9.092;2023-02-15T13:32:07;29.57;;;16.80;;
8913;SDS011;4492;48.736;9.092;2023-02-15T13:34:50;25.60;;;14.90;;
8913;SDS011;4492;48.736;9.092;2023-02-15T13:38:27;24.53;;;15.27;;
8913;SDS011;4492;48.736;9.092;2023-02-15T13:43:37;27.93;;;14.27;;
8913;SDS011;4492;48.736;9.092;2023-02-15T13:49:38;25.93;;;14.80;;
8913;SDS011;4492;48.736;9.092;2023-02-15T13:52:24;23.57;;;14.90;;
8913;SDS011;4492;48.736;9.092;2023-02-15T14:00:36;29.07;;;15.80;;
8913;SDS011;4492;48.736;9.092;2023-02-15T14:03:40;26.37;;;14.83;;
8913;SDS011;4492;48.736;9.092;2023-02-15T14:06:14;22.97;;;14.13;;
8913;SDS011;4492;48.736;9.092;2023-02-15T14:23:26;19.73;;;12.90;;
8913;SDS011;4492;48.736;9.092;2023-02-15T14:26:05;20.67;;;12.83;;
8913;SDS011;4492;48.736;9.092;2023-02-15T14:29:19;22.80;;;14.07;;
8913;SDS011;4492;48.736;9.092;2023-02-15T14:31:37;20.63;;;11.97;;
8913;SDS011;4492;48.736;9.092;2023-02-15T14:34:37;17.27;;;11.63;;
8913;SDS011;4492;48.736;9.092;2023-02-15T14:37:10;19.20;;;11.10;;
8913;SDS011;4492;48.736;9.092;2023-02-15T14:39:43;18.00;;;10.87;;
8913;SDS011;4492;48.736;9.092;2023-02-15T14:45:16;15.57;;;9.50;;
8913;SDS011;4492;48.736;9.092;2023-02-15T14:48:01;16.37;;;9.50;;
8913;SDS011;4492;48.736;9.092;2023-02-15T14:53:14;18.63;;;10.10;;
8913;SDS011;4492;48.736;9.092;2023-02-15T15:01:29;13.83;;;8.33;;
8913;SDS011;4492;48.736;9.092;2023-02-15T15:03:58;17.03;;;9.60;;
8913;SDS011;4492;48.736;9.092;2023-02-15T15:06:29;13.90;;;9.23;;
8913;SDS011;4492;48.736;9.092;2023-02-15T15:11:47;21.90;;;10.10;;
8913;SDS011;4492;48.736;9.092;2023-02-15T15:16:59;15.17;;;9.53;;
8913;SDS011;4492;48.736;9.092;2023-02-15T15:22:23;17.90;;;10.83;;
8913;SDS011;4492;48.736;9.092;2023-02-15T15:24:51;16.53;;;10.73;;
8913;SDS011;4492;48.736;9.092;2023-02-15T15:32:38;21.10;;;12.97;;
8913;SDS011;4492;48.736;9.092;2023-02-15T15:38:21;20.43;;;12.63;;
8913;SDS011;4492;48.736;9.092;2023-02-15T15:44:11;20.13;;;11.13;;
8913;SDS011;4492;48.736;9.092;2023-02-15T15:49:34;18.83;;;11.37;;
8913;SDS011;4492;48.736;9.092;2023-02-15T15:52:02;21.03;;;10.93;;
8913;SDS011;4492;48.736;9.092;2023-02-15T15:54:38;17.87;;;11.57;;
8913;SDS011;4492;48.736;9.092;2023-02-15T15:57:05;18.60;;;11.07;;
8913;SDS011;4492;48.736;9.092;2023-02-15T15:59:53;18.03;;;10.53;;
8913;SDS011;4492;48.736;9.092;2023-02-15T16:02:21;18.07;;;10.87;;
8913;SDS011;4492;48.736;9.092;2023-02-15T16:04:48;16.03;;;10.57;;
8913;SDS011;4492;48.736;9.092;2023-02-15T16:10:02;21.73;;;10.30;;
8913;SDS011;4492;48.736;9.092;2023-02-15T16:12:33;14.67;;;8.63;;
8913;SDS011;4492;48.736;9.092;2023-02-15T16:15:19;12.70;;;8.40;;
8913;SDS011;4492;48.736;9.092;2023-02-15T16:17:49;14.13;;;7.50;;
8913;SDS011;4492;48.736;9.092;2023-02-15T16:20:21;12.90;;;7.13;;
8913;SDS011;4492;48.736;9.092;2023-02-15T16:22:51;11.50;;;6.90;;
8913;SDS011;4492;48.736;9.092;2023-02-15T16:25:38;15.40;;;7.10;;
8913;SDS011;4492;48.736;9.092;2023-02-15T16:28:10;13.97;;;7.50;;
8913;SDS011;4492;48.736;9.092;2023-02-15T16:30:37;12.47;;;7.60;;
8913;SDS011;4492;48.736;9.092;2023-02-15T16:35:30;12.43;;;7.07;;
8913;SDS011;4492;48.736;9.092;2023-02-15T16:37:56;14.40;;;7.73;;
8913;SDS011;4492;48.736;9.092;2023-02-15T16:40:26;15.47;;;8.20;;
8913;SDS011;4492;48.736;9.092;2023-02-15T16:43:01;20.63;;;9.70;;
8913;SDS011;4492;48.736;9.092;2023-02-15T16:45:29;18.17;;;10.13;;
8913;SDS011;4492;48.736;9.092;2023-02-15T16:47:57;19.07;;;10.63;;
8913;SDS011;4492;48.736;9.092;2023-02-15T16:50:36;20.90;;;10.57;;
8913;SDS011;4492;48.736;9.092;2023-02-15T16:53:03;23.63;;;9.87;;
8913;SDS011;4492;48.736;9.092;2023-02-15T16:55:33;19.30;;;9.23;;
8913;SDS011;4492;48.736;9.092;2023-02-15T16:58:04;21.60;;;9.67;;
8913;SDS011;4492;48.736;9.092;2023-02-15T17:00:32;15.50;;;9.00;;
8913;SDS011;4492;48.736;9.092;2023-02-15T17:03:05;19.73;;;10.13;;
8913;SDS011;4492;48.736;9.092;2023-02-15T17:10:44;21.43;;;10.10;;
8913;SDS011;4492;48.736;9.092;2023-02-15T17:13:26;22.70;;;10.70;;
8913;SDS011;4492;48.736;9.092;2023-02-15T17:18:27;28.13;;;11.10;;
8913;SDS011;4492;48.736;9.092;2023-02-15T17:21:18;20.17;;;10.37;;
8913;SDS011;4492;48.736;9.092;2023-02-15T17:23:45;20.37;;;10.13;;
8913;SDS011;4492;48.736;9.092;2023-02-15T17:26:13;22.20;;;10.33;;
8913;SDS011;4492;48.736;9.092;2023-02-15T17:28:45;19.40;;;9.67;;
8913;SDS011;4492;48.736;9.092;2023-02-15T17:31:14;16.70;;;9.80;;
8913;SDS011;4492;48.736;9.092;2023-02-15T17:33:42;22.43;;;10.43;;
8913;SDS011;4492;48.736;9.092;2023-02-15T17:36:09;22.20;;;11.10;;
8913;SDS011;4492;48.736;9.092;2023-02-15T17:38:40;18.33;;;9.57;;
8913;SDS011;4492;48.736;9.092;2023-02-15T17:41:23;20.20;;;10.03;;
8913;SDS011;4492;48.736;9.092;2023-02-15T17:43:57;17.73;;;9.30;;
8913;SDS011;4492;48.736;9.092;2023-02-15T17:46:23;16.73;;;9.13;;
8913;SDS011;4492;48.736;9.092;2023-02-15T17:48:50;16.00;;;8.47;;
8913;SDS011;4492;48.736;9.092;2023-02-15T17:51:18;22.13;;;9.77;;
8913;SDS011;4492;48.736;9.092;2023-02-15T17:53:45;13.33;;;8.07;;
8913;SDS011;4492;48.736;9.092;2023-02-15T17:56:29;16.27;;;9.27;;
8913;SDS011;4492;48.736;9.092;2023-02-15T17:58:56;22.50;;;9.13;;